Time;durP1;ratioP1;P1;durP2;ratioP2;P2;SDS_P1;SDS_P2;PMS_P1;PMS_P2;Temp;Humidity;BMP_temperature;BMP_pressure;BME280_temperature;BME280_humidity;BME280_pressure;Samples;Min_cycle;Max_cycle;Signal;HPM_P1;HPM_P2
2022/08/25 00:00:50;;;;;;;28.60;25.60;;;21.10;99.90;;;;;;4976938;28;20481;-88
2022/08/25 00:03:19;;;;;;;32.53;24.00;;;21.30;99.90;;;;;;4969015;28;20733;-87
2022/08/25 00:05:50;;;;;;;32.13;27.70;;;21.20;99.90;;;;;;4961950;28;20776;-88
2022/08/25 00:08:23;;;;;;;34.93;28.30;;;21.10;99.90;;;;;;4996106;28;20504;-87
2022/08/25 00:10:58;;;;;;;35.23;27.73;;;21.10;99.90;;;;;;4990943;28;20432;-87
2022/08/25 00:13:48;;;;;;;35.83;27.17;;;21.30;99.90;;;;;;4979416;28;20438;-87
2022/08/25 00:16:21;;;;;;;33.97;27.80;;;21.20;99.90;;;;;;4964617;28;20463;-87
2022/08/25 00:18:57;;;;;;;35.43;27.87;;;21.20;99.90;;;;;;4981026;28;20485;-87
2022/08/25 00:21:30;;;;;;;32.40;28.70;;;21.20;99.90;;;;;;4979693;28;20510;-87
2022/08/25 00:24:10;;;;;;;33.93;29.43;;;21.30;99.90;;;;;;4980511;28;20945;-88
2022/08/25 00:26:45;;;;;;;38.63;31.80;;;21.30;99.90;;;;;;4974445;28;20527;-88
2022/08/25 00:29:16;;;;;;;40.13;30.90;;;21.40;99.90;;;;;;4964193;28;20452;-87
2022/08/25 00:31:51;;;;;;;37.97;31.10;;;21.20;99.90;;;;;;4979916;28;20420;-89
2022/08/25 00:34:28;;;;;;;31.53;26.23;;;21.10;99.90;;;;;;4980963;28;20448;-88
2022/08/25 00:36:58;;;;;;;31.17;26.07;;;21.20;99.90;;;;;;4976591;28;20810;-88
2022/08/25 00:39:29;;;;;;;34.77;30.30;;;21.20;99.90;;;;;;4980524;28;20456;-87
2022/08/25 00:42:02;;;;;;;32.57;26.60;;;20.90;99.90;;;;;;4976658;28;20437;-88
2022/08/25 00:44:44;;;;;;;29.70;24.30;;;20.80;99.90;;;;;;4972743;28;20495;-87
2022/08/25 00:47:14;;;;;;;32.27;25.47;;;20.90;99.90;;;;;;4975944;28;20424;-87
2022/08/25 00:49:51;;;;;;;30.47;26.37;;;20.80;99.90;;;;;;4978101;28;20460;-87
2022/08/25 00:52:32;;;;;;;28.87;24.03;;;20.70;99.90;;;;;;4997048;28;20422;-86
2022/08/25 00:55:28;;;;;;;33.53;26.20;;;20.60;99.90;;;;;;4975480;28;20506;-85
2022/08/25 00:58:18;;;;;;;37.00;26.30;;;20.60;99.90;;;;;;4981785;28;20527;-87
2022/08/25 01:00:52;;;;;;;31.57;27.30;;;20.50;99.90;;;;;;4981030;28;20630;-85
2022/08/25 01:03:26;;;;;;;31.70;26.93;;;20.60;99.90;;;;;;4980801;28;20502;-85
2022/08/25 01:06:02;;;;;;;31.80;26.17;;;20.60;99.90;;;;;;4978223;28;20410;-86
2022/08/25 01:08:31;;;;;;;33.47;27.17;;;20.50;99.90;;;;;;4979184;28;20571;-84
2022/08/25 01:11:02;;;;;;;41.47;30.50;;;20.50;99.90;;;;;;4979711;28;20431;-85
2022/08/25 01:13:51;;;;;;;32.27;28.70;;;20.60;99.90;;;;;;4971755;28;20519;-87
2022/08/25 01:16:21;;;;;;;30.67;25.77;;;20.60;99.90;;;;;;4979791;28;20515;-85
2022/08/25 01:18:56;;;;;;;33.47;27.50;;;20.50;99.90;;;;;;4971204;28;20445;-86
2022/08/25 01:21:38;;;;;;;34.00;29.50;;;20.60;99.90;;;;;;4979383;28;20416;-86
2022/08/25 01:24:06;;;;;;;33.60;27.80;;;20.70;99.90;;;;;;4994661;28;21027;-86
2022/08/25 01:26:35;;;;;;;38.00;27.80;;;20.60;99.90;;;;;;4978660;28;20467;-88
2022/08/25 01:29:24;;;;;;;32.67;26.53;;;20.50;99.90;;;;;;4976363;28;20435;-87
2022/08/25 01:32:02;;;;;;;33.20;26.47;;;20.60;99.90;;;;;;4972962;28;20601;-87
2022/08/25 01:34:42;;;;;;;33.60;27.37;;;20.50;99.90;;;;;;4985605;28;20426;-87
2022/08/25 01:37:14;;;;;;;34.97;29.47;;;20.40;99.90;;;;;;4981358;28;20489;-87
2022/08/25 01:39:44;;;;;;;35.47;27.70;;;20.30;99.90;;;;;;4982930;28;20441;-86
2022/08/25 01:42:36;;;;;;;33.17;27.00;;;20.20;99.90;;;;;;4976050;28;20532;-88
2022/08/25 01:45:07;;;;;;;35.00;29.60;;;20.20;99.90;;;;;;4977938;28;20444;-88
2022/08/25 01:47:35;;;;;;;38.63;29.03;;;20.30;99.90;;;;;;4983455;28;20460;-88
2022/08/25 01:50:04;;;;;;;33.33;28.47;;;20.20;99.90;;;;;;4986531;28;20503;-86
2022/08/25 01:52:42;;;;;;;34.47;28.00;;;20.20;99.90;;;;;;4971539;28;20640;-86
2022/08/25 01:55:11;;;;;;;37.03;30.03;;;20.20;99.90;;;;;;4981219;28;20440;-88
2022/08/25 01:57:48;;;;;;;34.33;29.30;;;20.10;99.90;;;;;;4977237;28;20511;-88
2022/08/25 02:00:18;;;;;;;37.30;29.17;;;20.10;99.90;;;;;;4977097;28;20444;-86
2022/08/25 02:02:46;;;;;;;36.17;28.80;;;20.10;99.90;;;;;;4977856;28;20459;-85
2022/08/25 02:05:18;;;;;;;34.50;27.73;;;20.00;99.90;;;;;;4966936;28;20497;-86
2022/08/25 02:07:49;;;;;;;40.60;29.43;;;19.80;99.90;;;;;;4972065;28;20771;-85
2022/08/25 02:10:18;;;;;;;39.90;29.10;;;19.80;99.90;;;;;;4977279;28;20427;-85
2022/08/25 02:12:49;;;;;;;39.63;29.17;;;19.70;99.90;;;;;;4976759;28;20801;-86
2022/08/25 02:15:20;;;;;;;36.93;28.50;;;19.70;99.90;;;;;;4960740;29;20463;-84
2022/08/25 02:17:50;;;;;;;42.10;30.00;;;19.70;99.90;;;;;;4992267;28;20438;-86
2022/08/25 02:20:18;;;;;;;40.67;30.00;;;19.70;99.90;;;;;;4973035;28;20465;-85
2022/08/25 02:22:45;;;;;;;35.47;28.40;;;19.70;99.90;;;;;;4978950;28;20435;-87
2022/08/25 02:25:22;;;;;;;49.90;30.03;;;19.70;99.90;;;;;;4973629;28;20464;-86
2022/08/25 02:27:50;;;;;;;40.07;30.70;;;19.70;99.90;;;;;;4974628;28;20702;-87
2022/08/25 02:30:18;;;;;;;35.33;29.67;;;19.80;99.90;;;;;;4975675;28;20421;-87
2022/08/25 02:32:46;;;;;;;37.00;31.70;;;19.70;99.90;;;;;;4980836;28;20411;-86
2022/08/25 02:35:13;;;;;;;33.93;27.77;;;19.70;99.90;;;;;;4980332;28;20761;-86
2022/08/25 02:37:43;;;;;;;40.63;30.97;;;19.80;99.90;;;;;;4978545;28;20509;-87
2022/08/25 02:40:12;;;;;;;38.87;30.23;;;19.80;99.90;;;;;;4976805;28;20468;-86
2022/08/25 02:42:40;;;;;;;38.80;28.47;;;19.60;99.90;;;;;;4981239;28;20448;-85
2022/08/25 02:45:11;;;;;;;47.10;32.20;;;19.40;99.90;;;;;;4979126;28;20454;-86
2022/08/25 02:47:52;;;;;;;51.97;33.53;;;19.40;99.90;;;;;;4973759;28;20423;-86
2022/08/25 02:50:19;;;;;;;39.03;34.40;;;19.40;99.90;;;;;;4980947;28;20426;-87
2022/08/25 02:52:50;;;;;;;47.07;36.33;;;19.30;99.90;;;;;;4973283;28;20443;-86
2022/08/25 02:55:26;;;;;;;47.43;34.20;;;19.30;99.90;;;;;;5002812;28;20399;-87
2022/08/25 02:57:54;;;;;;;45.27;32.83;;;19.20;99.90;;;;;;4989727;28;20468;-85
2022/08/25 03:00:21;;;;;;;49.47;34.17;;;19.10;99.90;;;;;;4985417;28;20467;-84
2022/08/25 03:02:49;;;;;;;45.17;32.20;;;19.30;99.90;;;;;;4981528;28;20538;-86
2022/08/25 03:05:18;;;;;;;45.03;32.50;;;19.20;99.90;;;;;;4974561;28;20459;-87
2022/08/25 03:07:45;;;;;;;44.23;34.13;;;19.40;99.90;;;;;;4990557;28;20440;-86
2022/08/25 03:10:20;;;;;;;49.50;32.37;;;19.40;99.90;;;;;;4988411;28;20437;-88
2022/08/25 03:12:52;;;;;;;41.27;31.77;;;19.40;99.90;;;;;;4993987;28;20494;-87
2022/08/25 03:15:23;;;;;;;41.83;31.80;;;19.50;99.90;;;;;;4983824;28;20472;-89
2022/08/25 03:17:56;;;;;;;42.60;34.27;;;19.60;99.90;;;;;;4964484;28;20411;-87
2022/08/25 03:20:28;;;;;;;43.43;31.90;;;19.60;99.90;;;;;;4979604;28;20519;-86
2022/08/25 03:22:56;;;;;;;43.77;33.37;;;19.50;99.90;;;;;;4978766;28;20495;-87
2022/08/25 03:28:15;;;;;;;39.27;31.03;;;19.40;99.90;;;;;;4974444;28;20423;-86
2022/08/25 03:30:44;;;;;;;41.30;32.47;;;19.50;99.90;;;;;;4975835;28;20437;-86
2022/08/25 03:33:19;;;;;;;42.60;31.30;;;19.40;99.90;;;;;;4988380;28;20418;-84
2022/08/25 03:35:54;;;;;;;43.20;29.97;;;19.60;99.90;;;;;;4973637;28;20446;-85
2022/08/25 03:38:24;;;;;;;48.40;32.37;;;19.60;99.90;;;;;;4977876;28;20415;-85
2022/08/25 03:40:52;;;;;;;43.23;33.87;;;19.50;99.90;;;;;;4967971;28;20458;-85
2022/08/25 03:43:22;;;;;;;43.93;29.50;;;19.50;99.90;;;;;;4975636;28;20430;-86
2022/08/25 03:45:49;;;;;;;43.20;32.97;;;19.60;99.90;;;;;;4981100;28;20423;-85
2022/08/25 03:48:18;;;;;;;46.20;34.73;;;19.70;99.90;;;;;;4980156;28;20459;-87
2022/08/25 03:50:48;;;;;;;52.90;34.90;;;19.80;99.90;;;;;;4976865;28;20441;-87
2022/08/25 03:53:19;;;;;;;47.10;33.77;;;19.80;99.90;;;;;;4974947;28;20527;-87
2022/08/25 03:55:51;;;;;;;45.20;34.10;;;19.80;99.90;;;;;;4977108;28;20494;-87
2022/08/25 03:58:18;;;;;;;40.57;34.03;;;19.90;99.90;;;;;;4978735;28;20448;-86
2022/08/25 04:00:46;;;;;;;47.23;32.30;;;19.90;99.90;;;;;;4977083;28;20430;-86
2022/08/25 04:03:16;;;;;;;44.60;35.00;;;20.00;99.90;;;;;;4978390;28;20772;-85
2022/08/25 04:05:46;;;;;;;42.67;32.53;;;19.90;99.90;;;;;;4975194;28;20764;-86
2022/08/25 04:08:15;;;;;;;41.93;32.37;;;19.70;99.90;;;;;;4972760;28;20423;-87
2022/08/25 04:10:44;;;;;;;38.60;30.30;;;19.50;99.90;;;;;;4974586;28;20424;-86
2022/08/25 04:13:14;;;;;;;43.87;32.60;;;19.50;99.90;;;;;;4972910;28;20494;-85
2022/08/25 04:15:47;;;;;;;57.37;32.70;;;19.20;99.90;;;;;;4978452;28;20572;-86
2022/08/25 04:18:14;;;;;;;40.50;34.10;;;19.20;99.90;;;;;;4979619;28;20430;-87
2022/08/25 04:20:43;;;;;;;38.47;30.77;;;19.40;99.90;;;;;;4971721;28;20427;-85
2022/08/25 04:23:15;;;;;;;37.30;31.33;;;19.70;99.90;;;;;;4978980;28;20457;-86
2022/08/25 04:25:46;;;;;;;41.53;33.10;;;19.80;99.90;;;;;;4978418;28;20435;-86
2022/08/25 04:28:16;;;;;;;42.17;30.93;;;19.70;99.90;;;;;;4973950;28;20438;-86
2022/08/25 04:30:45;;;;;;;39.30;32.13;;;19.60;99.90;;;;;;4977732;28;20597;-86
2022/08/25 04:33:17;;;;;;;41.00;31.60;;;19.80;99.90;;;;;;4982570;28;20444;-85
2022/08/25 04:35:50;;;;;;;44.00;32.10;;;19.70;99.90;;;;;;4985938;28;20441;-86
2022/08/25 04:38:17;;;;;;;46.67;33.63;;;19.90;99.90;;;;;;4978493;28;20441;-85
2022/08/25 04:40:44;;;;;;;43.53;32.43;;;20.10;99.90;;;;;;4976892;28;20419;-86
2022/08/25 04:43:12;;;;;;;38.10;33.30;;;20.00;99.90;;;;;;4982678;28;20441;-86
2022/08/25 04:45:40;;;;;;;34.20;29.80;;;19.90;99.90;;;;;;4974831;28;20427;-87
2022/08/25 04:48:07;;;;;;;34.07;29.23;;;20.20;99.90;;;;;;4973302;28;20449;-87
2022/08/25 04:50:43;;;;;;;36.63;32.70;;;20.20;99.90;;;;;;4974789;28;20479;-87
2022/08/25 04:53:14;;;;;;;38.90;32.93;;;20.00;99.90;;;;;;4975260;28;20644;-87
2022/08/25 04:55:46;;;;;;;36.70;29.57;;;20.30;99.90;;;;;;4979355;28;20424;-87
2022/08/25 04:58:15;;;;;;;33.40;29.73;;;20.60;99.90;;;;;;4979038;28;20688;-87
2022/08/25 05:00:42;;;;;;;36.13;29.27;;;20.60;99.90;;;;;;4977061;28;20782;-90
2022/08/25 05:03:13;;;;;;;34.67;30.40;;;20.80;99.90;;;;;;4978367;28;20480;-88
2022/08/25 05:05:40;;;;;;;32.00;28.47;;;21.00;99.90;;;;;;4979243;28;20460;-86
2022/08/25 05:08:09;;;;;;;39.97;30.20;;;21.00;99.90;;;;;;4988318;28;20531;-88
2022/08/25 05:10:40;;;;;;;37.97;28.20;;;21.30;99.90;;;;;;4972779;28;20437;-87
2022/08/25 05:13:09;;;;;;;33.67;29.60;;;21.30;99.90;;;;;;4979341;28;20508;-86
2022/08/25 05:15:52;;;;;;;31.43;28.10;;;21.50;99.90;;;;;;4976061;28;20567;-87
2022/08/25 05:18:23;;;;;;;36.70;31.47;;;21.40;99.90;;;;;;4976795;28;20631;-88
2022/08/25 05:20:54;;;;;;;35.53;27.67;;;21.40;99.90;;;;;;4961994;28;20452;-88
2022/08/25 05:23:27;;;;;;;32.90;29.43;;;21.60;99.90;;;;;;4977169;28;20444;-88
2022/08/25 05:26:29;;;;;;;;;;;;;;;;;;;;;
2022/08/25 05:29:00;;;;;;;28.43;25.40;;;21.60;99.90;;;;;;4979357;28;20469;-88
2022/08/25 05:31:32;;;;;;;38.73;28.00;;;21.70;99.90;;;;;;4977550;28;20430;-87
2022/08/25 05:34:14;;;;;;;37.77;28.93;;;21.60;99.90;;;;;;4979143;28;20665;-89
2022/08/25 05:36:49;;;;;;;32.43;26.90;;;21.70;99.90;;;;;;4970826;28;20540;-87
2022/08/25 05:39:17;;;;;;;31.10;25.80;;;22.00;99.90;;;;;;4989103;28;20611;-87
2022/08/25 05:41:44;;;;;;;29.00;25.00;;;22.20;99.90;;;;;;4978173;28;20479;-87
2022/08/25 05:44:16;;;;;;;30.27;27.00;;;22.30;99.90;;;;;;4986151;28;20745;-86
2022/08/25 05:46:51;;;;;;;26.40;23.90;;;22.70;99.90;;;;;;4989345;28;20536;-87
2022/08/25 05:49:49;;;;;;;28.80;23.07;;;22.90;99.90;;;;;;4978189;28;20442;-86
2022/08/25 05:52:32;;;;;;;29.10;25.00;;;23.20;99.90;;;;;;4975880;28;21019;-88
2022/08/25 05:55:14;;;;;;;29.03;24.23;;;23.20;99.90;;;;;;4980490;28;21293;-88
2022/08/25 05:57:47;;;;;;;27.63;23.27;;;22.90;99.90;;;;;;4977644;28;20468;-88
2022/08/25 06:00:49;;;;;;;;;;;;;;;;;;;;;
2022/08/25 06:03:32;;;;;;;26.10;22.50;;;23.40;99.90;;;;;;4976493;28;20430;-87
2022/08/25 06:06:17;;;;;;;;;;;;;;;;;;;;;
2022/08/25 06:09:23;;;;;;;25.87;23.30;;;23.60;99.90;;;;;;4979063;28;20418;-89
2022/08/25 06:16:18;;;;;;;25.00;22.60;;;23.40;99.90;;;;;;4908323;29;20481;-90
2022/08/25 06:19:01;;;;;;;32.80;22.73;;;23.60;99.90;;;;;;4897409;29;20422;-88
2022/08/25 06:21:45;;;;;;;29.60;23.80;;;23.50;99.90;;;;;;4930973;29;20451;-89
2022/08/25 06:24:23;;;;;;;26.57;23.67;;;23.60;99.90;;;;;;4898695;29;20476;-88
2022/08/25 06:27:07;;;;;;;28.13;24.17;;;23.60;99.90;;;;;;4897118;29;20812;-88
2022/08/25 06:29:51;;;;;;;29.17;25.03;;;23.80;99.90;;;;;;4891267;29;20425;-88
2022/08/25 06:33:06;;;;;;;;;;;;;;;;;;;;;
2022/08/25 06:35:47;;;;;;;26.00;22.30;;;23.40;99.90;;;;;;4979748;28;20467;-89
2022/08/25 06:38:33;;;;;;;26.03;22.30;;;23.40;99.90;;;;;;4981119;28;20453;-88
2022/08/25 06:41:09;;;;;;;28.80;22.83;;;23.70;99.90;;;;;;4978822;28;20598;-86
2022/08/25 06:43:40;;;;;;;34.47;24.40;;;23.90;99.90;;;;;;4967434;28;20490;-86
2022/08/25 06:46:28;;;;;;;26.70;23.47;;;24.30;99.90;;;;;;4975837;28;20459;-86
2022/08/25 06:49:05;;;;;;;25.37;22.60;;;24.40;99.90;;;;;;4975714;28;20431;-88
2022/08/25 06:51:38;;;;;;;26.20;21.80;;;24.60;99.90;;;;;;4979852;28;20447;-85
2022/08/25 06:54:10;;;;;;;27.67;22.03;;;24.80;99.90;;;;;;4963930;28;20464;-87
2022/08/25 06:56:45;;;;;;;28.40;22.43;;;24.90;99.90;;;;;;4973542;28;20453;-85
2022/08/25 06:59:16;;;;;;;28.27;20.80;;;25.10;99.90;;;;;;4980882;28;20411;-87
2022/08/25 07:01:58;;;;;;;25.17;21.50;;;25.20;99.90;;;;;;4975403;28;20884;-87
2022/08/25 07:04:35;;;;;;;29.80;21.33;;;25.50;99.90;;;;;;4973337;28;20464;-87
2022/08/25 07:07:07;;;;;;;33.30;20.73;;;25.70;99.90;;;;;;4973228;28;20484;-87
2022/08/25 07:09:49;;;;;;;23.83;20.77;;;25.80;99.90;;;;;;4973224;28;20452;-87
2022/08/25 07:12:22;;;;;;;21.60;19.23;;;26.00;99.90;;;;;;4980556;28;20430;-87
2022/08/25 07:14:52;;;;;;;29.83;19.17;;;26.60;99.90;;;;;;4972711;28;20451;-86
2022/08/25 07:17:50;;;;;;;22.40;20.13;;;26.90;99.90;;;;;;4976785;28;20551;-87
2022/08/25 07:20:21;;;;;;;25.47;20.47;;;27.10;99.90;;;;;;4974987;28;20444;-86
2022/08/25 07:22:56;;;;;;;33.13;20.47;;;27.50;99.90;;;;;;4978176;28;20460;-85
2022/08/25 07:25:23;;;;;;;24.67;22.17;;;27.90;99.90;;;;;;4969780;28;20484;-87
2022/08/25 07:27:52;;;;;;;28.17;21.50;;;28.50;99.90;;;;;;4975812;28;20467;-87
2022/08/25 07:30:25;;;;;;;26.77;20.27;;;30.40;99.90;;;;;;4975097;28;20432;-88
2022/08/25 07:32:53;;;;;;;23.70;21.13;;;31.30;99.90;;;;;;4979111;28;20524;-89
2022/08/25 07:35:35;;;;;;;23.33;20.07;;;30.00;99.90;;;;;;4974130;28;20445;-87
2022/08/25 07:38:06;;;;;;;19.90;17.80;;;29.60;99.90;;;;;;4969838;28;20475;-89
2022/08/25 07:40:40;;;;;;;24.93;18.83;;;30.50;99.90;;;;;;4971433;28;20459;-89
2022/08/25 07:43:11;;;;;;;20.07;17.90;;;31.70;99.90;;;;;;4971996;28;20439;-88
2022/08/25 07:45:50;;;;;;;19.80;17.63;;;31.50;99.90;;;;;;4974693;28;20441;-91
2022/08/25 07:51:05;;;;;;;25.00;17.00;;;32.00;99.90;;;;;;5191113;23;20524;-87
2022/08/25 07:56:13;;;;;;;16.83;15.00;;;34.70;99.90;;;;;;5068721;23;20493;-89
2022/08/25 07:58:42;;;;;;;22.90;15.63;;;34.00;99.90;;;;;;4950324;29;20540;-87
2022/08/25 08:01:18;;;;;;;21.27;15.77;;;33.70;99.90;;;;;;4947541;29;20442;-88
2022/08/25 08:03:48;;;;;;;17.47;15.70;;;34.40;99.90;;;;;;4952034;29;20932;-83
2022/08/25 08:08:56;;;;;;;19.83;15.60;;;32.80;99.90;;;;;;4946675;29;20656;-82
2022/08/25 08:11:31;;;;;;;17.07;15.13;;;32.70;99.90;;;;;;5066594;23;21586;-82
2022/08/25 08:13:59;;;;;;;20.90;15.53;;;33.20;99.90;;;;;;4977000;28;20440;-86
2022/08/25 08:16:28;;;;;;;17.57;14.93;;;31.60;99.90;;;;;;5074576;23;20489;-84
2022/08/25 08:18:57;;;;;;;18.90;17.07;;;31.20;99.90;;;;;;5021008;23;20542;-90
2022/08/25 08:21:29;;;;;;;18.27;16.27;;;32.50;99.90;;;;;;4975066;28;20446;-88
2022/08/25 08:23:57;;;;;;;22.93;14.17;;;34.50;99.90;;;;;;4962298;29;20853;-83
2022/08/25 08:26:26;;;;;;;17.73;13.47;;;35.50;99.90;;;;;;4954540;29;20448;-88
2022/08/25 08:29:15;;;;;;;17.70;12.93;;;35.50;99.90;;;;;;4966270;28;20692;-86
2022/08/25 08:31:42;;;;;;;14.27;12.87;;;35.80;99.90;;;;;;4960277;28;20445;-90
2022/08/25 08:34:15;;;;;;;14.60;13.10;;;34.10;99.90;;;;;;4964823;28;20457;-84
2022/08/25 08:36:42;;;;;;;13.80;12.50;;;33.90;99.90;;;;;;4958709;29;20532;-90
2022/08/25 08:39:11;;;;;;;14.37;12.27;;;34.30;99.90;;;;;;4957848;29;20500;-85
2022/08/25 08:42:16;;;;;;;11.30;10.20;;;34.70;99.90;;;;;;4960329;29;20536;-86
2022/08/25 08:44:43;;;;;;;16.43;11.63;;;34.30;99.90;;;;;;4959537;28;20457;-86
2022/08/25 08:47:26;;;;;;;15.23;12.80;;;33.70;99.90;;;;;;4964456;28;20465;-86
2022/08/25 08:50:05;;;;;;;11.87;10.97;;;34.20;99.90;;;;;;4957635;29;20575;-84
2022/08/25 08:53:19;;;;;;;16.23;10.00;;;34.30;99.90;;;;;;4952730;28;20433;-85
2022/08/25 08:55:58;;;;;;;14.97;9.87;;;33.90;99.90;;;;;;4941747;29;20453;-88
2022/08/25 08:58:37;;;;;;;8.23;7.53;;;34.90;99.90;;;;;;4959732;28;20481;-82
2022/08/25 09:01:16;;;;;;;8.27;7.33;;;35.10;99.90;;;;;;5074366;23;20497;-81
2022/08/25 09:03:49;;;;;;;13.60;8.10;;;34.40;99.90;;;;;;4958855;28;20495;-83
2022/08/25 09:06:35;;;;;;;12.03;7.63;;;34.00;99.90;;;;;;4959622;28;20473;-82
2022/08/25 09:09:04;;;;;;;12.57;7.83;;;34.70;99.90;;;;;;4963672;28;20824;-85
2022/08/25 09:11:59;;;;;;;13.07;7.37;;;34.70;99.90;;;;;;4955560;29;20457;-85
2022/08/25 09:15:08;;;;;;;11.40;8.40;;;34.70;99.90;;;;;;4956820;28;20622;-90
2022/08/25 09:17:48;;;;;;;18.03;7.70;;;34.30;99.90;;;;;;4954914;28;20504;-86
2022/08/25 09:20:52;;;;;;;13.40;7.30;;;33.80;99.90;;;;;;4957849;28;20441;-84
2022/08/25 09:23:44;;;;;;;9.77;7.33;;;33.50;99.90;;;;;;4941630;29;20509;-86
2022/08/25 09:26:17;;;;;;;8.70;7.87;;;31.60;99.90;;;;;;4952397;29;20449;-85
2022/08/25 09:28:49;;;;;;;7.90;6.63;;;29.40;99.90;;;;;;4941440;28;20459;-85
2022/08/25 09:31:26;;;;;;;13.77;8.23;;;29.10;99.90;;;;;;4953103;28;20438;-84
2022/08/25 09:33:58;;;;;;;11.53;7.00;;;28.90;99.90;;;;;;4953459;29;20752;-87
2022/08/25 09:36:26;;;;;;;9.67;7.40;;;28.40;99.90;;;;;;4947933;29;20489;-90
2022/08/25 09:38:54;;;;;;;9.33;6.73;;;28.40;99.90;;;;;;4950622;29;20516;-87
2022/08/25 09:41:48;;;;;;;14.13;8.53;;;29.00;99.90;;;;;;4955731;29;20449;-88
2022/08/25 09:44:31;;;;;;;8.87;7.97;;;29.00;99.90;;;;;;4955854;28;20506;-88
2022/08/25 09:47:12;;;;;;;10.47;7.37;;;28.80;99.90;;;;;;4947121;29;20450;-90
2022/08/25 09:49:58;;;;;;;13.97;7.00;;;29.40;99.90;;;;;;4959543;29;20964;-89
2022/08/25 09:52:33;;;;;;;9.00;6.30;;;30.30;99.90;;;;;;4956853;29;20537;-86
2022/08/25 09:55:25;;;;;;;8.83;6.27;;;30.50;99.90;;;;;;4953778;29;20493;-88
2022/08/25 09:57:56;;;;;;;18.23;6.43;;;29.50;99.90;;;;;;4954995;28;20854;-87
2022/08/25 10:00:32;;;;;;;8.40;6.00;;;29.90;99.90;;;;;;4957555;29;20429;-87
2022/08/25 10:03:13;;;;;;;11.63;6.30;;;30.50;99.90;;;;;;4957902;28;21677;-86
2022/08/25 10:06:03;;;;;;;11.73;6.40;;;31.00;99.90;;;;;;4946992;28;20494;-89
2022/08/25 10:08:56;;;;;;;11.43;5.80;;;30.20;99.90;;;;;;4946267;28;20452;-88
2022/08/25 10:12:03;;;;;;;11.70;6.20;;;29.50;99.90;;;;;;4948911;29;20453;-88
2022/08/25 10:14:39;;;;;;;18.70;6.97;;;29.40;99.90;;;;;;4956209;28;20463;-84
2022/08/25 10:17:15;;;;;;;10.13;5.93;;;29.70;99.90;;;;;;4952759;29;20445;-83
2022/08/25 10:19:43;;;;;;;11.03;5.07;;;29.90;99.90;;;;;;4958401;28;20555;-86
2022/08/25 10:22:31;;;;;;;14.60;4.80;;;29.70;99.90;;;;;;4952544;28;20449;-82
2022/08/25 10:24:59;;;;;;;14.90;5.40;;;29.50;99.90;;;;;;4942066;29;20454;-84
2022/08/25 10:27:46;;;;;;;16.43;4.50;;;29.00;99.90;;;;;;4956273;28;20449;-83
2022/08/25 10:30:27;;;;;;;11.70;4.73;;;28.70;99.90;;;;;;4950442;28;20516;-88
2022/08/25 10:33:17;;;;;;;8.30;4.87;;;28.50;99.90;;;;;;4957205;28;20431;-84
2022/08/25 10:35:52;;;;;;;10.33;5.17;;;28.10;99.90;;;;;;4960675;28;20441;-84
2022/08/25 10:38:28;;;;;;;10.83;4.63;;;28.30;99.90;;;;;;4954575;28;20468;-88
2022/08/25 10:41:31;;;;;;;14.57;5.40;;;28.40;99.90;;;;;;4947992;29;20456;-85
2022/08/25 10:47:29;;;;;;;11.10;5.53;;;28.70;99.90;;;;;;4946443;29;20490;-82
2022/08/25 10:50:08;;;;;;;9.40;5.47;;;28.10;99.90;;;;;;4958518;29;20912;-83
2022/08/25 10:53:06;;;;;;;10.30;5.50;;;27.90;99.90;;;;;;4960070;28;20463;-85
2022/08/25 10:55:51;;;;;;;12.87;5.20;;;28.20;99.90;;;;;;4971317;28;20425;-82
2022/08/25 10:58:27;;;;;;;13.73;5.10;;;28.40;99.90;;;;;;4975398;28;20641;-80
2022/08/25 11:01:30;;;;;;;15.97;5.63;;;28.40;99.90;;;;;;4954269;29;20444;-80
2022/08/25 11:04:14;;;;;;;9.93;6.00;;;28.10;99.90;;;;;;4959141;29;20523;-87
2022/08/25 11:06:54;;;;;;;11.30;5.70;;;27.70;99.90;;;;;;4952057;29;20473;-82
2022/08/25 11:09:26;;;;;;;22.67;6.67;;;27.70;99.90;;;;;;4953771;28;20539;-83
2022/08/25 11:12:03;;;;;;;9.80;5.87;;;27.50;99.90;;;;;;4954511;29;20514;-85
2022/08/25 11:14:35;;;;;;;18.43;8.27;;;27.40;99.90;;;;;;4961787;29;20454;-83
2022/08/25 11:17:10;;;;;;;10.37;6.77;;;27.60;99.90;;;;;;4959940;29;20448;-86
2022/08/25 11:19:44;;;;;;;13.83;5.40;;;27.70;99.90;;;;;;4959524;29;20484;-83
2022/08/25 11:22:23;;;;;;;10.00;5.90;;;27.70;99.90;;;;;;4953788;29;20443;-85
2022/08/25 11:25:11;;;;;;;10.70;6.57;;;28.00;99.90;;;;;;4959040;28;20456;-82
2022/08/25 11:28:09;;;;;;;15.53;6.50;;;28.30;99.90;;;;;;4958826;28;20528;-88
2022/08/25 11:30:37;;;;;;;21.87;5.93;;;28.30;99.90;;;;;;4960084;28;20430;-83
2022/08/25 11:33:10;;;;;;;12.07;7.13;;;28.60;99.90;;;;;;4953208;28;20767;-82
2022/08/25 11:35:52;;;;;;;16.83;5.73;;;28.20;99.90;;;;;;4955972;28;20455;-84
2022/08/25 11:38:57;;;;;;;11.03;6.87;;;28.00;99.90;;;;;;4952383;29;20548;-87
2022/08/25 11:41:57;;;;;;;19.67;7.00;;;28.30;99.90;;;;;;4959977;29;20459;-88
2022/08/25 11:44:42;;;;;;;11.33;6.23;;;28.60;99.90;;;;;;4970102;28;20456;-87
2022/08/25 11:47:31;;;;;;;19.10;5.90;;;28.90;99.90;;;;;;4958229;28;20484;-83
2022/08/25 11:50:05;;;;;;;18.17;7.60;;;28.90;99.90;;;;;;4957487;29;20453;-84
2022/08/25 11:52:32;;;;;;;6.93;6.23;;;28.60;99.90;;;;;;4953295;28;20740;-83
2022/08/25 11:55:22;;;;;;;12.93;6.43;;;28.20;99.90;;;;;;4958535;28;20476;-87
2022/08/25 11:57:51;;;;;;;12.80;6.57;;;28.40;99.90;;;;;;4959871;28;20464;-88
2022/08/25 12:00:40;;;;;;;18.07;7.27;;;28.60;99.90;;;;;;4967341;28;20444;-88
2022/08/25 12:03:35;;;;;;;12.87;6.67;;;28.70;99.90;;;;;;4962682;28;20892;-83
2022/08/25 12:06:26;;;;;;;11.90;6.77;;;28.50;99.90;;;;;;4966320;29;20465;-86
2022/08/25 12:08:59;;;;;;;13.07;7.00;;;28.20;99.90;;;;;;4956428;29;20452;-87
2022/08/25 12:11:41;;;;;;;9.30;5.63;;;28.10;99.90;;;;;;4941222;28;20452;-85
2022/08/25 12:14:21;;;;;;;14.93;8.07;;;28.30;99.90;;;;;;4949331;28;20440;-84
2022/08/25 12:16:55;;;;;;;9.93;6.13;;;28.70;99.90;;;;;;4952899;29;20464;-86
2022/08/25 12:19:30;;;;;;;12.37;7.40;;;28.90;99.90;;;;;;4952256;28;21184;-89
2022/08/25 12:22:06;;;;;;;13.07;6.77;;;29.40;99.90;;;;;;4956221;28;20527;-86
2022/08/25 12:24:43;;;;;;;12.77;5.97;;;29.80;99.90;;;;;;4948425;29;20420;-83
2022/08/25 12:27:37;;;;;;;12.67;7.13;;;29.90;99.90;;;;;;4957110;28;20429;-80
2022/08/25 12:30:23;;;;;;;12.83;6.30;;;29.80;99.90;;;;;;4958726;29;20484;-86
2022/08/25 12:33:08;;;;;;;16.67;7.43;;;29.20;99.90;;;;;;4949044;29;20601;-88
2022/08/25 12:35:50;;;;;;;18.60;7.10;;;29.30;99.90;;;;;;4954344;29;20454;-88
2022/08/25 12:38:28;;;;;;;11.63;5.87;;;29.60;99.90;;;;;;4948357;29;20492;-84
2022/08/25 12:41:20;;;;;;;14.20;6.43;;;29.80;99.90;;;;;;4956276;28;20652;-84
2022/08/25 12:44:09;;;;;;;11.13;6.90;;;29.30;99.90;;;;;;4955336;28;20668;-86
2022/08/25 12:46:38;;;;;;;16.57;6.33;;;29.10;99.90;;;;;;4954463;28;20437;-81
2022/08/25 12:49:29;;;;;;;18.43;5.30;;;28.90;99.90;;;;;;4950782;29;20769;-86
2022/08/25 12:52:11;;;;;;;8.90;6.40;;;28.80;99.90;;;;;;4953743;29;20524;-83
2022/08/25 12:54:59;;;;;;;12.30;6.37;;;28.80;99.90;;;;;;4946839;29;20413;-84
2022/08/25 12:57:59;;;;;;;14.23;6.20;;;28.60;99.90;;;;;;4956005;29;20695;-86
2022/08/25 13:00:56;;;;;;;12.20;5.37;;;28.60;99.90;;;;;;4958707;28;20430;-88
2022/08/25 13:03:46;;;;;;;11.83;5.13;;;28.80;99.90;;;;;;4956798;28;20513;-87
2022/08/25 13:06:18;;;;;;;10.77;5.80;;;29.20;99.90;;;;;;4951341;29;20728;-85
2022/08/25 13:09:04;;;;;;;15.87;6.43;;;29.10;99.90;;;;;;4959639;28;20441;-86
2022/08/25 13:11:46;;;;;;;19.27;5.43;;;29.10;99.90;;;;;;4950576;29;20509;-81
2022/08/25 13:14:40;;;;;;;20.10;6.30;;;28.90;99.90;;;;;;4961107;28;20465;-83
2022/08/25 13:17:10;;;;;;;9.10;6.60;;;29.20;99.90;;;;;;4964803;28;20445;-85
2022/08/25 13:19:37;;;;;;;15.53;6.40;;;29.20;99.90;;;;;;4971557;28;20536;-86
2022/08/25 13:22:16;;;;;;;18.13;5.83;;;29.40;99.90;;;;;;4971099;28;20433;-80
2022/08/25 13:24:48;;;;;;;14.57;5.97;;;29.40;99.90;;;;;;4969625;28;20559;-81
2022/08/25 13:27:24;;;;;;;12.07;6.07;;;29.30;99.90;;;;;;4961333;28;20465;-84
2022/08/25 13:29:55;;;;;;;13.40;5.87;;;29.30;99.90;;;;;;4960852;29;20448;-83
2022/08/25 13:32:33;;;;;;;17.57;6.47;;;28.90;99.90;;;;;;4958579;29;20461;-87
2022/08/25 13:35:31;;;;;;;16.20;6.10;;;28.50;99.90;;;;;;4946833;29;20480;-85
2022/08/25 13:38:14;;;;;;;20.47;7.10;;;28.40;99.90;;;;;;4955675;28;20537;-86
2022/08/25 13:40:42;;;;;;;11.10;6.67;;;28.40;99.90;;;;;;4959051;29;20473;-83
2022/08/25 13:43:12;;;;;;;23.50;6.60;;;28.60;99.90;;;;;;4956617;28;20820;-88